Aeroporto :
LOGIN :

Iscrizione | Disclaimer

   EN    FR    IT 

 










Sommario :    VFR   VFR Marginale   IFR   IFR Intensivo   IFR Molto Intensivo
Visibilità : 
Base nubi : 
>= 8 km
>= 3000ft
5 / 8 km
1000 / 3000 ft
1500m / 5 km
500 / 1000 ft
800 / 1500m
200 / 500 ft
< 800m
< 200 ft
Simboli :   Temporali  Nebbia  Neve Forte  Precipitazioni Forti  Vento > 20 kt
SIGMETs :   Varie  Temporali  Ghiacco  Turbolenza  Onda orograficha  Ceneri Vulcaniche






- Altitudine del aeroporto : 364 ft


LFAQ - Albert Bray

ULTIMO METAR :
  • 072100Z AUTO 21014KT 9999 OVC035 09/07 Q1015

METARs OBSOLETI :
  • 072030Z AUTO 21012KT 9999 OVC035 09/07 Q1016
  • 072000Z AUTO 20012KT 9999 OVC033 09/07 Q1016
  • 071930Z AUTO 20011KT 9999 OVC034 09/07 Q1016
  • 071900Z AUTO 20012KT 9999 OVC037 09/07 Q1016
  • 071830Z AUTO 21010KT 9999 OVC036 09/07 Q1016

TAF TAF LFAQ
Valido dal 07 a 15 ore il 08 a 00 ore UTC


071400Z 0715/0724 22012KT 9999 BKN020
PROB30
TEMPO 0719/0724 BKN012



MetMap, La meteo Aeronautica in un colpo d'occhio ! - Copyright ORBIFLY Dicembre 2007 - Disclaimer

ORBIFLY MET'MAP TEAM :

Programmazione e sviluppo : Alexandra Zaïnal
Concezione : Baudouin d'Aumeries
Aiuto per la programmazione : Marc-Olivier Méhu
Supporto tecnico e logistico : Manuel Goepfert
Aiuto per la traduzione : Arnaldo La Scala

Contatto : metmap@orbifly.com




FONTI E CREDITI :

   NOAA